PWSweather.com
Personal Weather Stations
Station Observations
LABLIDAR
PotenzaIT

PotenzaIT

Lat: 40.6467, Lon: 15.809

Elevation: 2395

Station Type: Oregon WMRS200

High Low Average
Temperature 74.7°F23.7°F 65.7°F18.7°F 71.2°F21.8°F
Dew Point 55.1°F12.8°F 49.1°F9.5°F 52.8°F11.6°F
Winds 5.2 mph NNW8.4 mph NNW Calm Calm 1.8 mph 2.9 mph
Wind Gusts 15.4 mph24.8 mph -- 4.8 mph7.7 mph
Humidity 56% 42% 52%
Pressure 27.58 in934.00 in 27.26 in923.10 in -
Precipitation 0.00 in0.00 in - -
Hour Temp Dew Point Humidity Winds Wind Gusts Pressure Precip Precip Rate Daily Precip Total
01:00 AM 71.6°F22.0°C 55.1°F12.8°C 56% 1.9 mph E3.1 kmh E 5.4 mph8.7 kmh 27.55 in933.0 mb 0.00 in0.0 mm 0.00 in/hr0.0 mm/hr 0.00 in0.0 mm
01:05 AM 71.6°F22.0°C 55.1°F12.8°C 56% 1.8 mph ESE2.9 kmh ESE 5.4 mph8.7 kmh 27.55 in933.0 mb 0.00 in0.0 mm 0.00 in/hr0.0 mm/hr 0.00 in0.0 mm
01:10 AM 71.5°F21.9°C 55.0°F12.8°C 56% 1.8 mph ESE2.9 kmh ESE 6.9 mph11.1 kmh 27.55 in933.0 mb 0.00 in0.0 mm 0.00 in/hr0.0 mm/hr 0.00 in0.0 mm
01:15 AM 71.4°F21.9°C 54.9°F12.7°C 56% 1.2 mph S1.9 kmh S 6.9 mph11.1 kmh 27.55 in933.0 mb 0.00 in0.0 mm 0.00 in/hr0.0 mm/hr 0.00 in0.0 mm
01:20 AM 71.4°F21.9°C 54.9°F12.7°C 56% 1.1 mph E1.8 kmh E 4.3 mph6.9 kmh 27.55 in933.0 mb 0.00 in0.0 mm 0.00 in/hr0.0 mm/hr 0.00 in0.0 mm
01:25 AM 71.4°F21.9°C 54.9°F12.7°C 56% 1.7 mph N2.7 kmh N 4.3 mph6.9 kmh 27.55 in933.0 mb 0.00 in0.0 mm 0.00 in/hr0.0 mm/hr 0.00 in0.0 mm
01:30 AM 71.4°F21.9°C 54.9°F12.7°C 56% 0.7 mph E1.1 kmh E 4.0 mph6.4 kmh 27.52 in931.9 mb 0.00 in0.0 mm 0.00 in/hr0.0 mm/hr 0.00 in0.0 mm
01:35 AM 71.4°F21.9°C 54.9°F12.7°C 56% 2.3 mph N3.7 kmh N 3.1 mph5.0 kmh 27.52 in931.9 mb 0.00 in0.0 mm 0.00 in/hr0.0 mm/hr 0.00 in0.0 mm
01:40 AM 71.2°F21.8°C 54.8°F12.7°C 56% 0.4 mph ENE0.6 kmh ENE 3.4 mph5.5 kmh 27.52 in931.9 mb 0.00 in0.0 mm 0.00 in/hr0.0 mm/hr 0.00 in0.0 mm
01:45 AM 71.2°F21.8°C 54.8°F12.7°C 56% 1.5 mph SE2.4 kmh SE 4.0 mph6.4 kmh 27.58 in934.0 mb 0.00 in0.0 mm 0.00 in/hr0.0 mm/hr 0.00 in0.0 mm
01:50 AM 71.2°F21.8°C 54.8°F12.7°C 56% 4.6 mph SW7.4 kmh SW 7.8 mph12.6 kmh 27.58 in934.0 mb 0.00 in0.0 mm 0.00 in/hr0.0 mm/hr 0.00 in0.0 mm
01:55 AM 71.2°F21.8°C 54.8°F12.7°C 56% 3.6 mph SE5.8 kmh SE 9.8 mph15.8 kmh 27.58 in934.0 mb 0.00 in0.0 mm 0.00 in/hr0.0 mm/hr 0.00 in0.0 mm
02:00 AM 71.1°F21.7°C 54.6°F12.6°C 56% 3.4 mph WSW5.5 kmh WSW 9.8 mph15.8 kmh 27.55 in933.0 mb 0.00 in0.0 mm 0.00 in/hr0.0 mm/hr 0.00 in0.0 mm
02:05 AM 71.1°F21.7°C 54.6°F12.6°C 56% 2.2 mph WSW3.5 kmh WSW 7.4 mph11.9 kmh 27.55 in933.0 mb 0.00 in0.0 mm 0.00 in/hr0.0 mm/hr 0.00 in0.0 mm
02:10 AM 71.1°F21.7°C 54.6°F12.6°C 56% 0.8 mph SSE1.3 kmh SSE 5.4 mph8.7 kmh 27.55 in933.0 mb 0.00 in0.0 mm 0.00 in/hr0.0 mm/hr 0.00 in0.0 mm
02:15 AM 71.1°F21.7°C 54.6°F12.6°C 56% 2.5 mph E4.0 kmh E 4.0 mph6.4 kmh 27.55 in933.0 mb 0.00 in0.0 mm 0.00 in/hr0.0 mm/hr 0.00 in0.0 mm
02:20 AM 71.1°F21.7°C 54.6°F12.6°C 56% 1.5 mph SE2.4 kmh SE 3.4 mph5.5 kmh 27.55 in933.0 mb 0.00 in0.0 mm 0.00 in/hr0.0 mm/hr 0.00 in0.0 mm
02:25 AM 71.1°F21.7°C 54.6°F12.6°C 56% 1.2 mph S1.9 kmh S 4.3 mph6.9 kmh 27.55 in933.0 mb 0.00 in0.0 mm 0.00 in/hr0.0 mm/hr 0.00 in0.0 mm
02:30 AM 70.9°F21.6°C 54.4°F12.4°C 56% 3.0 mph SW4.8 kmh SW 6.3 mph10.1 kmh 27.52 in931.9 mb 0.00 in0.0 mm 0.00 in/hr0.0 mm/hr 0.00 in0.0 mm
02:35 AM 70.9°F21.6°C 54.4°F12.4°C 56% 1.7 mph SE2.7 kmh SE 6.3 mph10.1 kmh 27.52 in931.9 mb 0.00 in0.0 mm 0.00 in/hr0.0 mm/hr 0.00 in0.0 mm
02:40 AM 70.9°F21.6°C 54.4°F12.4°C 56% 1.8 mph NNE2.9 kmh NNE 4.0 mph6.4 kmh 27.52 in931.9 mb 0.00 in0.0 mm 0.00 in/hr0.0 mm/hr 0.00 in0.0 mm
02:45 AM 70.9°F21.6°C 54.4°F12.4°C 56% 1.9 mph SE3.1 kmh SE 3.4 mph5.5 kmh 27.52 in931.9 mb 0.00 in0.0 mm 0.00 in/hr0.0 mm/hr 0.00 in0.0 mm
02:50 AM 70.7°F21.5°C 54.1°F12.3°C 55% 2.7 mph ESE4.3 kmh ESE 4.5 mph7.2 kmh 27.52 in931.9 mb 0.00 in0.0 mm 0.00 in/hr0.0 mm/hr 0.00 in0.0 mm
02:55 AM 70.7°F21.5°C 53.8°F12.1°C 55% 1.7 mph N2.7 kmh N 4.5 mph7.2 kmh 27.52 in931.9 mb 0.00 in0.0 mm 0.00 in/hr0.0 mm/hr 0.00 in0.0 mm
03:00 AM 70.7°F21.5°C 53.8°F12.1°C 55% 1.2 mph NNW1.9 kmh NNW 3.6 mph5.8 kmh 27.55 in933.0 mb 0.00 in0.0 mm 0.00 in/hr0.0 mm/hr 0.00 in0.0 mm
03:05 AM 70.7°F21.5°C 53.8°F12.1°C 55% 1.5 mph ENE2.4 kmh ENE 4.3 mph6.9 kmh 27.55 in933.0 mb 0.00 in0.0 mm 0.00 in/hr0.0 mm/hr 0.00 in0.0 mm
03:10 AM 70.7°F21.5°C 53.8°F12.1°C 55% 2.1 mph WNW3.4 kmh WNW 4.3 mph6.9 kmh 27.55 in933.0 mb 0.00 in0.0 mm 0.00 in/hr0.0 mm/hr 0.00 in0.0 mm
03:15 AM 70.6°F21.4°C 53.7°F12.1°C 55% 1.9 mph S3.1 kmh S 4.3 mph6.9 kmh 27.52 in931.9 mb 0.00 in0.0 mm 0.00 in/hr0.0 mm/hr 0.00 in0.0 mm
03:20 AM 70.5°F21.4°C 53.6°F12.0°C 55% 0.7 mph ENE1.1 kmh ENE 4.3 mph6.9 kmh 27.52 in931.9 mb 0.00 in0.0 mm 0.00 in/hr0.0 mm/hr 0.00 in0.0 mm
03:25 AM 70.5°F21.4°C 53.6°F12.0°C 55% 2.2 mph N3.5 kmh N 4.3 mph6.9 kmh 27.52 in931.9 mb 0.00 in0.0 mm 0.00 in/hr0.0 mm/hr 0.00 in0.0 mm
03:30 AM 70.5°F21.4°C 53.6°F12.0°C 55% 1.7 mph S2.7 kmh S 6.5 mph10.5 kmh 27.52 in931.9 mb 0.00 in0.0 mm 0.00 in/hr0.0 mm/hr 0.00 in0.0 mm
03:35 AM 70.5°F21.4°C 53.6°F12.0°C 55% 0.6 mph ENE1.0 kmh ENE 6.5 mph10.5 kmh 27.52 in931.9 mb 0.00 in0.0 mm 0.00 in/hr0.0 mm/hr 0.00 in0.0 mm
03:40 AM 70.4°F21.3°C 53.5°F11.9°C 55% 2.2 mph S3.5 kmh S 4.9 mph7.9 kmh 27.52 in931.9 mb 0.00 in0.0 mm 0.00 in/hr0.0 mm/hr 0.00 in0.0 mm
03:45 AM 70.3°F21.3°C 53.4°F11.9°C 55% 2.0 mph NE3.2 kmh NE 4.9 mph7.9 kmh 27.52 in931.9 mb 0.00 in0.0 mm 0.00 in/hr0.0 mm/hr 0.00 in0.0 mm
03:50 AM 70.3°F21.3°C 53.4°F11.9°C 55% 2.5 mph NNE4.0 kmh NNE 4.3 mph6.9 kmh 27.52 in931.9 mb 0.00 in0.0 mm 0.00 in/hr0.0 mm/hr 0.00 in0.0 mm
03:55 AM 70.3°F21.3°C 53.4°F11.9°C 55% 2.6 mph NW4.2 kmh NW 4.3 mph6.9 kmh 27.52 in931.9 mb 0.00 in0.0 mm 0.00 in/hr0.0 mm/hr 0.00 in0.0 mm
04:00 AM 70.3°F21.3°C 53.4°F11.9°C 55% 1.8 mph WSW2.9 kmh WSW 5.6 mph9.0 kmh 27.49 in930.9 mb 0.00 in0.0 mm 0.00 in/hr0.0 mm/hr 0.00 in0.0 mm
04:05 AM 70.3°F21.3°C 53.4°F11.9°C 55% 2.7 mph WNW4.3 kmh WNW 5.6 mph9.0 kmh 27.49 in930.9 mb 0.00 in0.0 mm 0.00 in/hr0.0 mm/hr 0.00 in0.0 mm
04:10 AM 70.2°F21.2°C 53.3°F11.8°C 55% 2.7 mph S4.3 kmh S 5.4 mph8.7 kmh 27.49 in930.9 mb 0.00 in0.0 mm 0.00 in/hr0.0 mm/hr 0.00 in0.0 mm
04:15 AM 70.2°F21.2°C 53.3°F11.8°C 55% 2.7 mph W4.3 kmh W 5.8 mph9.3 kmh 27.49 in930.9 mb 0.00 in0.0 mm 0.00 in/hr0.0 mm/hr 0.00 in0.0 mm
04:20 AM 70.2°F21.2°C 53.3°F11.8°C 55% 2.7 mph WNW4.3 kmh WNW 6.3 mph10.1 kmh 27.49 in930.9 mb 0.00 in0.0 mm 0.00 in/hr0.0 mm/hr 0.00 in0.0 mm
04:25 AM 70.2°F21.2°C 53.3°F11.8°C 55% 2.9 mph W4.7 kmh W 6.3 mph10.1 kmh 27.49 in930.9 mb 0.00 in0.0 mm 0.00 in/hr0.0 mm/hr 0.00 in0.0 mm
04:30 AM 70.2°F21.2°C 53.3°F11.8°C 55% 1.5 mph SE2.4 kmh SE 5.8 mph9.3 kmh 27.46 in929.9 mb 0.00 in0.0 mm 0.00 in/hr0.0 mm/hr 0.00 in0.0 mm
04:35 AM 70.1°F21.2°C 53.2°F11.8°C 55% 1.1 mph NE1.8 kmh NE 2.9 mph4.7 kmh 27.46 in929.9 mb 0.00 in0.0 mm 0.00 in/hr0.0 mm/hr 0.00 in0.0 mm
04:40 AM 70.0°F21.1°C 53.1°F11.7°C 55% 1.5 mph NE2.4 kmh NE 2.9 mph4.7 kmh 27.46 in929.9 mb 0.00 in0.0 mm 0.00 in/hr0.0 mm/hr 0.00 in0.0 mm
04:45 AM 70.0°F21.1°C 53.1°F11.7°C 55% 2.5 mph SW4.0 kmh SW 5.8 mph9.3 kmh 27.46 in929.9 mb 0.00 in0.0 mm 0.00 in/hr0.0 mm/hr 0.00 in0.0 mm
04:50 AM 70.0°F21.1°C 53.1°F11.7°C 55% 1.7 mph SW2.7 kmh SW 5.8 mph9.3 kmh 27.46 in929.9 mb 0.00 in0.0 mm 0.00 in/hr0.0 mm/hr 0.00 in0.0 mm
04:55 AM 70.0°F21.1°C 53.1°F11.7°C 55% 1.2 mph SE1.9 kmh SE 4.0 mph6.4 kmh 27.46 in929.9 mb 0.00 in0.0 mm 0.00 in/hr0.0 mm/hr 0.00 in0.0 mm
05:00 AM 70.0°F21.1°C 53.1°F11.7°C 55% 4.6 mph ESE7.4 kmh ESE 7.8 mph12.6 kmh 27.46 in929.9 mb 0.00 in0.0 mm 0.00 in/hr0.0 mm/hr 0.00 in0.0 mm
05:05 AM 69.8°F21.0°C 53.3°F11.8°C 56% 0.2 mph N0.3 kmh N 7.8 mph12.6 kmh 27.46 in929.9 mb 0.00 in0.0 mm 0.00 in/hr0.0 mm/hr 0.00 in0.0 mm
05:10 AM 69.8°F21.0°C 53.3°F11.8°C 56% 1.6 mph SW2.6 kmh SW 3.8 mph6.1 kmh 27.46 in929.9 mb 0.00 in0.0 mm 0.00 in/hr0.0 mm/hr 0.00 in0.0 mm
05:15 AM 69.8°F21.0°C 53.2°F11.8°C 55% 1.2 mph SSW1.9 kmh SSW 3.4 mph5.5 kmh 27.49 in930.9 mb 0.00 in0.0 mm 0.00 in/hr0.0 mm/hr 0.00 in0.0 mm
05:20 AM 69.8°F21.0°C 53.4°F11.9°C 56% 1.4 mph S2.3 kmh S 2.9 mph4.7 kmh 27.49 in930.9 mb 0.00 in0.0 mm 0.00 in/hr0.0 mm/hr 0.00 in0.0 mm
05:25 AM 69.8°F21.0°C 53.2°F11.8°C 56% 1.2 mph S1.9 kmh S 4.7 mph7.6 kmh 27.49 in930.9 mb 0.00 in0.0 mm 0.00 in/hr0.0 mm/hr 0.00 in0.0 mm
05:30 AM 69.6°F20.9°C 53.3°F11.8°C 56% 0.6 mph N1.0 kmh N 7.6 mph12.2 kmh 27.49 in930.9 mb 0.00 in0.0 mm 0.00 in/hr0.0 mm/hr 0.00 in0.0 mm
05:35 AM 69.6°F20.9°C 53.2°F11.8°C 56% 2.2 mph WNW3.5 kmh WNW 7.6 mph12.2 kmh 27.49 in930.9 mb 0.00 in0.0 mm 0.00 in/hr0.0 mm/hr 0.00 in0.0 mm
05:40 AM 69.6°F20.9°C 53.2°F11.8°C 56% 2.7 mph NNE4.3 kmh NNE 4.3 mph6.9 kmh 27.49 in930.9 mb 0.00 in0.0 mm 0.00 in/hr0.0 mm/hr 0.00 in0.0 mm
05:45 AM 69.6°F20.9°C 53.2°F11.8°C 56% 2.1 mph N3.4 kmh N 3.8 mph6.1 kmh 27.52 in931.9 mb 0.00 in0.0 mm 0.00 in/hr0.0 mm/hr 0.00 in0.0 mm
05:50 AM 69.6°F20.9°C 53.2°F11.8°C 56% 1.5 mph ENE2.4 kmh ENE 3.4 mph5.5 kmh 27.52 in931.9 mb 0.00 in0.0 mm 0.00 in/hr0.0 mm/hr 0.00 in0.0 mm
05:55 AM 69.6°F20.9°C 53.2°F11.8°C 56% 2.1 mph N3.4 kmh N 4.3 mph6.9 kmh 27.52 in931.9 mb 0.00 in0.0 mm 0.00 in/hr0.0 mm/hr 0.00 in0.0 mm
06:00 AM 69.6°F20.9°C 53.2°F11.8°C 56% 2.5 mph NNE4.0 kmh NNE 4.3 mph6.9 kmh 27.49 in930.9 mb 0.00 in0.0 mm 0.00 in/hr0.0 mm/hr 0.00 in0.0 mm
06:05 AM 69.6°F20.9°C 53.2°F11.8°C 56% 1.4 mph E2.3 kmh E 4.0 mph6.4 kmh 27.49 in930.9 mb 0.00 in0.0 mm 0.00 in/hr0.0 mm/hr 0.00 in0.0 mm
06:10 AM 69.6°F20.9°C 53.2°F11.8°C 56% 1.7 mph ENE2.7 kmh ENE 4.0 mph6.4 kmh 27.49 in930.9 mb 0.00 in0.0 mm 0.00 in/hr0.0 mm/hr 0.00 in0.0 mm
06:15 AM 69.6°F20.9°C 53.2°F11.8°C 56% 1.9 mph NNE3.1 kmh NNE 3.8 mph6.1 kmh 27.49 in930.9 mb 0.00 in0.0 mm 0.00 in/hr0.0 mm/hr 0.00 in0.0 mm
06:20 AM 69.6°F20.9°C 53.2°F11.8°C 56% 2.3 mph N3.7 kmh N 4.3 mph6.9 kmh 27.49 in930.9 mb 0.00 in0.0 mm 0.00 in/hr0.0 mm/hr 0.00 in0.0 mm
06:25 AM 69.7°F20.9°C 53.2°F11.8°C 56% 2.2 mph NNW3.5 kmh NNW 4.3 mph6.9 kmh 27.49 in930.9 mb 0.00 in0.0 mm 0.00 in/hr0.0 mm/hr 0.00 in0.0 mm
06:30 AM 69.8°F21.0°C 52.9°F11.6°C 55% Calm Calm 3.6 mph5.8 kmh 27.46 in929.9 mb 0.00 in0.0 mm 0.00 in/hr0.0 mm/hr 0.00 in0.0 mm
06:35 AM 69.9°F21.1°C 53.0°F11.7°C 55% 0.7 mph SE1.1 kmh SE 1.6 mph2.6 kmh 27.46 in929.9 mb 0.00 in0.0 mm 0.00 in/hr0.0 mm/hr 0.00 in0.0 mm
06:40 AM 70.1°F21.2°C 53.1°F11.7°C 54% 0.4 mph NE0.6 kmh NE 3.1 mph5.0 kmh 27.46 in929.9 mb 0.00 in0.0 mm 0.00 in/hr0.0 mm/hr 0.00 in0.0 mm
06:45 AM 70.3°F21.3°C 52.9°F11.6°C 54% 2.6 mph NE4.2 kmh NE 5.8 mph9.3 kmh 27.46 in929.9 mb 0.00 in0.0 mm 0.00 in/hr0.0 mm/hr 0.00 in0.0 mm
06:50 AM 70.6°F21.4°C 53.1°F11.7°C 54% 1.5 mph WNW2.4 kmh WNW 5.8 mph9.3 kmh 27.46 in929.9 mb 0.00 in0.0 mm 0.00 in/hr0.0 mm/hr 0.00 in0.0 mm
06:55 AM 70.8°F21.6°C 52.9°F11.6°C 53% 2.5 mph NNE4.0 kmh NNE 5.8 mph9.3 kmh 27.46 in929.9 mb 0.00 in0.0 mm 0.00 in/hr0.0 mm/hr 0.00 in0.0 mm
07:00 AM 71.0°F21.7°C 52.9°F11.6°C 52% 2.1 mph ENE3.4 kmh ENE 5.8 mph9.3 kmh 27.46 in929.9 mb 0.00 in0.0 mm 0.00 in/hr0.0 mm/hr 0.00 in0.0 mm
07:05 AM 71.2°F21.8°C 52.7°F11.5°C 52% 0.5 mph NW0.8 kmh NW 4.3 mph6.9 kmh 27.46 in929.9 mb 0.00 in0.0 mm 0.00 in/hr0.0 mm/hr 0.00 in0.0 mm
07:10 AM 71.4°F21.9°C 52.9°F11.6°C 52% 2.5 mph N4.0 kmh N 3.4 mph5.5 kmh 27.46 in929.9 mb 0.00 in0.0 mm 0.00 in/hr0.0 mm/hr 0.00 in0.0 mm
07:15 AM 71.5°F21.9°C 52.6°F11.4°C 51% 1.7 mph NE2.7 kmh NE 4.0 mph6.4 kmh 27.46 in929.9 mb 0.00 in0.0 mm 0.00 in/hr0.0 mm/hr 0.00 in0.0 mm
07:20 AM 71.7°F22.1°C 52.6°F11.4°C 50% 1.9 mph NNE3.1 kmh NNE 4.0 mph6.4 kmh 27.46 in929.9 mb 0.00 in0.0 mm 0.00 in/hr0.0 mm/hr 0.00 in0.0 mm
07:25 AM 72.0°F22.2°C 52.3°F11.3°C 50% 1.2 mph NE1.9 kmh NE 3.1 mph5.0 kmh 27.46 in929.9 mb 0.00 in0.0 mm 0.00 in/hr0.0 mm/hr 0.00 in0.0 mm
07:30 AM 72.2°F22.3°C 52.5°F11.4°C 50% 1.5 mph N2.4 kmh N 3.1 mph5.0 kmh 27.46 in929.9 mb 0.00 in0.0 mm 0.00 in/hr0.0 mm/hr 0.00 in0.0 mm
07:35 AM 72.3°F22.4°C 52.6°F11.4°C 50% 2.1 mph NE3.4 kmh NE 3.8 mph6.1 kmh 27.46 in929.9 mb 0.00 in0.0 mm 0.00 in/hr0.0 mm/hr 0.00 in0.0 mm
07:40 AM 72.5°F22.5°C 52.3°F11.3°C 49% 1.0 mph SSE1.6 kmh SSE 3.8 mph6.1 kmh 27.46 in929.9 mb 0.00 in0.0 mm 0.00 in/hr0.0 mm/hr 0.00 in0.0 mm
07:45 AM 72.5°F22.5°C 52.3°F11.3°C 49% 3.0 mph NE4.8 kmh NE 4.9 mph7.9 kmh 27.46 in929.9 mb 0.00 in0.0 mm 0.00 in/hr0.0 mm/hr 0.00 in0.0 mm
07:50 AM 72.7°F22.6°C 52.4°F11.3°C 49% 2.6 mph NNE4.2 kmh NNE 4.9 mph7.9 kmh 27.46 in929.9 mb 0.00 in0.0 mm 0.00 in/hr0.0 mm/hr 0.00 in0.0 mm
07:55 AM 72.7°F22.6°C 52.5°F11.4°C 49% 0.4 mph NNW0.6 kmh NNW 3.4 mph5.5 kmh 27.46 in929.9 mb 0.00 in0.0 mm 0.00 in/hr0.0 mm/hr 0.00 in0.0 mm
08:00 AM 72.9°F22.7°C 52.6°F11.4°C 49% 1.9 mph NW3.1 kmh NW 3.4 mph5.5 kmh 27.43 in928.9 mb 0.00 in0.0 mm 0.00 in/hr0.0 mm/hr 0.00 in0.0 mm
08:05 AM 72.9°F22.7°C 52.6°F11.4°C 49% 1.2 mph SW1.9 kmh SW 3.4 mph5.5 kmh 27.43 in928.9 mb 0.00 in0.0 mm 0.00 in/hr0.0 mm/hr 0.00 in0.0 mm
08:10 AM 73.0°F22.8°C 52.7°F11.5°C 49% 1.6 mph N2.6 kmh N 4.9 mph7.9 kmh 27.43 in928.9 mb 0.00 in0.0 mm 0.00 in/hr0.0 mm/hr 0.00 in0.0 mm
08:15 AM 73.0°F22.8°C 52.8°F11.6°C 49% 4.0 mph SW6.4 kmh SW 6.5 mph10.5 kmh 27.43 in928.9 mb 0.00 in0.0 mm 0.00 in/hr0.0 mm/hr 0.00 in0.0 mm
08:20 AM 73.2°F22.9°C 52.9°F11.6°C 49% 3.5 mph SE5.6 kmh SE 8.5 mph13.7 kmh 27.43 in928.9 mb 0.00 in0.0 mm 0.00 in/hr0.0 mm/hr 0.00 in0.0 mm
08:25 AM 73.4°F23.0°C 52.5°F11.4°C 48% 2.7 mph N4.3 kmh N 8.5 mph13.7 kmh 27.43 in928.9 mb 0.00 in0.0 mm 0.00 in/hr0.0 mm/hr 0.00 in0.0 mm
08:30 AM 73.5°F23.1°C 52.7°F11.5°C 48% 2.8 mph NW4.5 kmh NW 7.4 mph11.9 kmh 27.46 in929.9 mb 0.00 in0.0 mm 0.00 in/hr0.0 mm/hr 0.00 in0.0 mm
08:35 AM 73.6°F23.1°C 51.8°F11.0°C 45% 3.3 mph NW5.3 kmh NW 8.1 mph13.0 kmh 27.46 in929.9 mb 0.00 in0.0 mm 0.00 in/hr0.0 mm/hr 0.00 in0.0 mm
08:40 AM 73.1°F22.8°C 49.6°F9.8°C 45% 3.2 mph WSW5.1 kmh WSW 8.1 mph13.0 kmh 27.46 in929.9 mb 0.00 in0.0 mm 0.00 in/hr0.0 mm/hr 0.00 in0.0 mm
08:45 AM 73.1°F22.8°C 52.3°F11.3°C 49% 2.0 mph NE3.2 kmh NE 7.6 mph12.2 kmh 27.43 in928.9 mb 0.00 in0.0 mm 0.00 in/hr0.0 mm/hr 0.00 in0.0 mm
08:50 AM 73.4°F23.0°C 52.9°F11.6°C 48% 1.7 mph SSE2.7 kmh SSE 4.9 mph7.9 kmh 27.43 in928.9 mb 0.00 in0.0 mm 0.00 in/hr0.0 mm/hr 0.00 in0.0 mm
08:55 AM 73.4°F23.0°C 50.4°F10.2°C 43% 2.8 mph WSW4.5 kmh WSW 4.0 mph6.4 kmh 27.43 in928.9 mb 0.00 in0.0 mm 0.00 in/hr0.0 mm/hr 0.00 in0.0 mm
09:00 AM 73.1°F22.8°C 51.8°F11.0°C 49% 2.2 mph SW3.5 kmh SW 4.7 mph7.6 kmh 27.43 in928.9 mb 0.00 in0.0 mm 0.00 in/hr0.0 mm/hr 0.00 in0.0 mm
09:05 AM 73.3°F22.9°C 53.1°F11.7°C 49% 1.5 mph SW2.4 kmh SW 4.7 mph7.6 kmh 27.43 in928.9 mb 0.00 in0.0 mm 0.00 in/hr0.0 mm/hr 0.00 in0.0 mm
09:10 AM 73.7°F23.2°C 53.2°F11.8°C 48% 2.9 mph ESE4.7 kmh ESE 7.2 mph11.6 kmh 27.43 in928.9 mb 0.00 in0.0 mm 0.00 in/hr0.0 mm/hr 0.00 in0.0 mm
09:15 AM 73.5°F23.1°C 50.9°F10.5°C 44% 4.5 mph NW7.2 kmh NW 13.0 mph20.9 kmh 27.40 in927.9 mb 0.00 in0.0 mm 0.00 in/hr0.0 mm/hr 0.00 in0.0 mm
09:20 AM 72.8°F22.7°C 52.2°F11.2°C 50% 2.2 mph WNW3.5 kmh WNW 13.0 mph20.9 kmh 27.40 in927.9 mb 0.00 in0.0 mm 0.00 in/hr0.0 mm/hr 0.00 in0.0 mm
09:25 AM 72.6°F22.6°C 53.0°F11.7°C 50% 1.3 mph NNW2.1 kmh NNW 5.4 mph8.7 kmh 27.40 in927.9 mb 0.00 in0.0 mm 0.00 in/hr0.0 mm/hr 0.00 in0.0 mm
09:30 AM 73.1°F22.8°C 53.3°F11.8°C 50% 2.7 mph NNW4.3 kmh NNW 6.3 mph10.1 kmh 27.40 in927.9 mb 0.00 in0.0 mm 0.00 in/hr0.0 mm/hr 0.00 in0.0 mm
09:35 AM 73.4°F23.0°C 53.5°F11.9°C 49% 0.8 mph SSE1.3 kmh SSE 6.3 mph10.1 kmh 27.40 in927.9 mb 0.00 in0.0 mm 0.00 in/hr0.0 mm/hr 0.00 in0.0 mm
09:40 AM 73.7°F23.2°C 53.3°F11.8°C 49% 1.6 mph NE2.6 kmh NE 3.6 mph5.8 kmh 27.40 in927.9 mb 0.00 in0.0 mm 0.00 in/hr0.0 mm/hr 0.00 in0.0 mm
09:45 AM 73.9°F23.3°C 53.3°F11.8°C 48% 1.7 mph N2.7 kmh N 3.6 mph5.8 kmh 27.40 in927.9 mb 0.00 in0.0 mm 0.00 in/hr0.0 mm/hr 0.00 in0.0 mm
09:50 AM 74.0°F23.3°C 53.1°F11.7°C 48% 2.6 mph W4.2 kmh W 4.3 mph6.9 kmh 27.40 in927.9 mb 0.00 in0.0 mm 0.00 in/hr0.0 mm/hr 0.00 in0.0 mm
09:55 AM 74.1°F23.4°C 53.2°F11.8°C 48% 0.6 mph SSE1.0 kmh SSE 5.6 mph9.0 kmh 27.40 in927.9 mb 0.00 in0.0 mm 0.00 in/hr0.0 mm/hr 0.00 in0.0 mm
10:00 AM 74.3°F23.5°C 53.4°F11.9°C 48% 2.3 mph WSW3.7 kmh WSW 5.6 mph9.0 kmh 27.40 in927.9 mb 0.00 in0.0 mm 0.00 in/hr0.0 mm/hr 0.00 in0.0 mm
10:05 AM 74.3°F23.5°C 53.3°F11.8°C 47% 1.8 mph SW2.9 kmh SW 5.6 mph9.0 kmh 27.40 in927.9 mb 0.00 in0.0 mm 0.00 in/hr0.0 mm/hr 0.00 in0.0 mm
10:10 AM 74.4°F23.6°C 52.9°F11.6°C 47% 2.2 mph W3.5 kmh W 6.5 mph10.5 kmh 27.40 in927.9 mb 0.00 in0.0 mm 0.00 in/hr0.0 mm/hr 0.00 in0.0 mm
10:15 AM 74.5°F23.6°C 53.0°F11.7°C 47% 0.4 mph NNE0.6 kmh NNE 6.5 mph10.5 kmh 27.40 in927.9 mb 0.00 in0.0 mm 0.00 in/hr0.0 mm/hr 0.00 in0.0 mm
10:20 AM 74.5°F23.6°C 53.0°F11.7°C 47% 2.1 mph ENE3.4 kmh ENE 4.9 mph7.9 kmh 27.40 in927.9 mb 0.00 in0.0 mm 0.00 in/hr0.0 mm/hr 0.00 in0.0 mm
10:25 AM 74.5°F23.6°C 53.0°F11.7°C 47% 4.4 mph NW7.1 kmh NW 7.4 mph11.9 kmh 27.40 in927.9 mb 0.00 in0.0 mm 0.00 in/hr0.0 mm/hr 0.00 in0.0 mm
10:30 AM 74.7°F23.7°C 53.1°F11.7°C 47% 2.5 mph N4.0 kmh N 7.4 mph11.9 kmh 27.37 in926.9 mb 0.00 in0.0 mm 0.00 in/hr0.0 mm/hr 0.00 in0.0 mm
10:35 AM 74.7°F23.7°C 53.1°F11.7°C 47% 2.9 mph NW4.7 kmh NW 5.4 mph8.7 kmh 27.37 in926.9 mb 0.00 in0.0 mm 0.00 in/hr0.0 mm/hr 0.00 in0.0 mm
10:40 AM 74.7°F23.7°C 53.1°F11.7°C 47% 2.1 mph NW3.4 kmh NW 5.8 mph9.3 kmh 27.37 in926.9 mb 0.00 in0.0 mm 0.00 in/hr0.0 mm/hr 0.00 in0.0 mm
10:45 AM 74.3°F23.5°C 50.7°F10.4°C 42% 1.9 mph E3.1 kmh E 5.8 mph9.3 kmh 27.37 in926.9 mb 0.00 in0.0 mm 0.00 in/hr0.0 mm/hr 0.00 in0.0 mm
10:50 AM 73.7°F23.2°C 50.0°F10.0°C 46% 2.1 mph WSW3.4 kmh WSW 3.6 mph5.8 kmh 27.37 in926.9 mb 0.00 in0.0 mm 0.00 in/hr0.0 mm/hr 0.00 in0.0 mm
10:55 AM 73.5°F23.1°C 52.5°F11.4°C 49% 0.6 mph WSW1.0 kmh WSW 3.6 mph5.8 kmh 27.37 in926.9 mb 0.00 in0.0 mm 0.00 in/hr0.0 mm/hr 0.00 in0.0 mm
11:00 AM 73.5°F23.1°C 53.2°F11.8°C 49% 1.5 mph N2.4 kmh N 3.6 mph5.8 kmh 27.37 in926.9 mb 0.00 in0.0 mm 0.00 in/hr0.0 mm/hr 0.00 in0.0 mm
11:05 AM 73.6°F23.1°C 53.3°F11.8°C 49% 1.1 mph W1.8 kmh W 6.3 mph10.1 kmh 27.37 in926.9 mb 0.00 in0.0 mm 0.00 in/hr0.0 mm/hr 0.00 in0.0 mm
11:10 AM 73.6°F23.1°C 53.3°F11.8°C 49% 1.7 mph WSW2.7 kmh WSW 6.3 mph10.1 kmh 27.37 in926.9 mb 0.00 in0.0 mm 0.00 in/hr0.0 mm/hr 0.00 in0.0 mm
11:15 AM 73.6°F23.1°C 53.3°F11.8°C 49% Calm Calm 4.3 mph6.9 kmh 27.40 in927.9 mb 0.00 in0.0 mm 0.00 in/hr0.0 mm/hr 0.00 in0.0 mm
11:20 AM 73.6°F23.1°C 53.7°F12.1°C 50% 2.0 mph NNE3.2 kmh NNE 4.0 mph6.4 kmh 27.40 in927.9 mb 0.00 in0.0 mm 0.00 in/hr0.0 mm/hr 0.00 in0.0 mm
11:25 AM 73.6°F23.1°C 53.8°F12.1°C 50% 5.2 mph NNW8.4 kmh NNW 15.4 mph24.8 kmh 27.40 in927.9 mb 0.00 in0.0 mm 0.00 in/hr0.0 mm/hr 0.00 in0.0 mm
11:30 AM 73.4°F23.0°C 54.1°F12.3°C 51% 2.5 mph N4.0 kmh N 15.4 mph24.8 kmh 27.43 in928.9 mb 0.00 in0.0 mm 0.00 in/hr0.0 mm/hr 0.00 in0.0 mm
11:35 AM 73.4°F23.0°C 54.2°F12.3°C 51% 3.3 mph N5.3 kmh N 4.9 mph7.9 kmh 27.43 in928.9 mb 0.00 in0.0 mm 0.00 in/hr0.0 mm/hr 0.00 in0.0 mm
11:40 AM 73.3°F22.9°C 54.1°F12.3°C 51% 1.7 mph N2.7 kmh N 4.7 mph7.6 kmh 27.43 in928.9 mb 0.00 in0.0 mm 0.00 in/hr0.0 mm/hr 0.00 in0.0 mm
11:45 AM 73.2°F22.9°C 54.3°F12.4°C 52% 1.7 mph SSW2.7 kmh SSW 3.8 mph6.1 kmh 27.40 in927.9 mb 0.00 in0.0 mm 0.00 in/hr0.0 mm/hr 0.00 in0.0 mm
11:50 AM 73.1°F22.8°C 54.4°F12.4°C 52% 1.9 mph S3.1 kmh S 3.8 mph6.1 kmh 27.40 in927.9 mb 0.00 in0.0 mm 0.00 in/hr0.0 mm/hr 0.00 in0.0 mm
11:55 AM 73.0°F22.8°C 54.4°F12.4°C 52% 3.0 mph SSW4.8 kmh SSW 6.0 mph9.7 kmh 27.40 in927.9 mb 0.00 in0.0 mm 0.00 in/hr0.0 mm/hr 0.00 in0.0 mm
12:00 PM 72.9°F22.7°C 54.3°F12.4°C 52% 2.7 mph SW4.3 kmh SW 6.0 mph9.7 kmh 27.40 in927.9 mb 0.00 in0.0 mm 0.00 in/hr0.0 mm/hr 0.00 in0.0 mm
12:05 PM 72.9°F22.7°C 54.5°F12.5°C 53% 4.7 mph SW7.6 kmh SW 6.5 mph10.5 kmh 27.40 in927.9 mb 0.00 in0.0 mm 0.00 in/hr0.0 mm/hr 0.00 in0.0 mm
12:10 PM 72.7°F22.6°C 54.6°F12.6°C 53% 3.7 mph SW6.0 kmh SW 6.5 mph10.5 kmh 27.40 in927.9 mb 0.00 in0.0 mm 0.00 in/hr0.0 mm/hr 0.00 in0.0 mm
12:15 PM 72.7°F22.6°C 54.6°F12.6°C 53% 2.2 mph SSW3.5 kmh SSW 5.6 mph9.0 kmh 27.37 in926.9 mb 0.00 in0.0 mm 0.00 in/hr0.0 mm/hr 0.00 in0.0 mm
12:20 PM 72.7°F22.6°C 54.6°F12.6°C 53% 3.0 mph W4.8 kmh W 5.6 mph9.0 kmh 27.37 in926.9 mb 0.00 in0.0 mm 0.00 in/hr0.0 mm/hr 0.00 in0.0 mm
12:25 PM 72.5°F22.5°C 54.4°F12.4°C 53% 1.8 mph SW2.9 kmh SW 4.9 mph7.9 kmh 27.37 in926.9 mb 0.00 in0.0 mm 0.00 in/hr0.0 mm/hr 0.00 in0.0 mm
12:30 PM 72.5°F22.5°C 54.6°F12.6°C 54% 3.2 mph WNW5.1 kmh WNW 5.6 mph9.0 kmh 27.34 in925.8 mb 0.00 in0.0 mm 0.00 in/hr0.0 mm/hr 0.00 in0.0 mm
12:35 PM 72.6°F22.6°C 55.0°F12.8°C 54% 2.2 mph SE3.5 kmh SE 5.6 mph9.0 kmh 27.34 in925.8 mb 0.00 in0.0 mm 0.00 in/hr0.0 mm/hr 0.00 in0.0 mm
12:40 PM 72.7°F22.6°C 55.1°F12.8°C 54% 2.6 mph SW4.2 kmh SW 6.0 mph9.7 kmh 27.34 in925.8 mb 0.00 in0.0 mm 0.00 in/hr0.0 mm/hr 0.00 in0.0 mm
12:45 PM 72.9°F22.7°C 54.9°F12.7°C 53% 2.8 mph NW4.5 kmh NW 6.0 mph9.7 kmh 27.37 in926.9 mb 0.00 in0.0 mm 0.00 in/hr0.0 mm/hr 0.00 in0.0 mm
12:50 PM 73.2°F22.9°C 55.0°F12.8°C 53% 2.0 mph NNE3.2 kmh NNE 3.8 mph6.1 kmh 27.37 in926.9 mb 0.00 in0.0 mm 0.00 in/hr0.0 mm/hr 0.00 in0.0 mm
12:55 PM 73.5°F23.1°C 55.1°F12.8°C 52% 1.6 mph WSW2.6 kmh WSW 3.8 mph6.1 kmh 27.37 in926.9 mb 0.00 in0.0 mm 0.00 in/hr0.0 mm/hr 0.00 in0.0 mm
01:00 PM 73.7°F23.2°C 54.0°F12.2°C 48% 2.8 mph ESE4.5 kmh ESE 8.9 mph14.3 kmh 27.37 in926.9 mb 0.00 in0.0 mm 0.00 in/hr0.0 mm/hr 0.00 in0.0 mm
01:05 PM 73.2°F22.9°C 50.8°F10.4°C 46% 1.5 mph WSW2.4 kmh WSW 8.9 mph14.3 kmh 27.37 in926.9 mb 0.00 in0.0 mm 0.00 in/hr0.0 mm/hr 0.00 in0.0 mm
01:10 PM 73.1°F22.8°C 53.3°F11.8°C 51% 3.1 mph SSW5.0 kmh SSW 4.7 mph7.6 kmh 27.37 in926.9 mb 0.00 in0.0 mm 0.00 in/hr0.0 mm/hr 0.00 in0.0 mm
01:15 PM 73.4°F23.0°C 54.8°F12.7°C 52% 3.0 mph S4.8 kmh S 4.7 mph7.6 kmh 27.34 in925.8 mb 0.00 in0.0 mm 0.00 in/hr0.0 mm/hr 0.00 in0.0 mm
01:20 PM 73.8°F23.2°C 54.5°F12.5°C 49% 3.5 mph W5.6 kmh W 8.7 mph14.0 kmh 27.34 in925.8 mb 0.00 in0.0 mm 0.00 in/hr0.0 mm/hr 0.00 in0.0 mm
01:25 PM 73.6°F23.1°C 51.2°F10.7°C 46% 2.2 mph SW3.5 kmh SW 8.7 mph14.0 kmh 27.34 in925.8 mb 0.00 in0.0 mm 0.00 in/hr0.0 mm/hr 0.00 in0.0 mm
01:30 PM 73.4°F23.0°C 53.8°F12.1°C 52% 1.9 mph NW3.1 kmh NW 5.8 mph9.3 kmh 27.34 in925.8 mb 0.00 in0.0 mm 0.00 in/hr0.0 mm/hr 0.00 in0.0 mm
01:35 PM 73.8°F23.2°C 55.1°F12.8°C 52% 1.0 mph SW1.6 kmh SW 5.8 mph9.3 kmh 27.34 in925.8 mb 0.00 in0.0 mm 0.00 in/hr0.0 mm/hr 0.00 in0.0 mm
01:40 PM 73.9°F23.3°C 53.3°F11.8°C 45% 3.9 mph WNW6.3 kmh WNW 5.8 mph9.3 kmh 27.34 in925.8 mb 0.00 in0.0 mm 0.00 in/hr0.0 mm/hr 0.00 in0.0 mm
01:45 PM 73.5°F23.1°C 51.5°F10.8°C 49% 3.2 mph WNW5.1 kmh WNW 5.8 mph9.3 kmh 27.32 in925.2 mb 0.00 in0.0 mm 0.00 in/hr0.0 mm/hr 0.00 in0.0 mm
01:50 PM 73.5°F23.1°C 54.5°F12.5°C 52% 3.6 mph W5.8 kmh W 7.6 mph12.2 kmh 27.32 in925.2 mb 0.00 in0.0 mm 0.00 in/hr0.0 mm/hr 0.00 in0.0 mm
01:55 PM 73.8°F23.2°C 55.1°F12.8°C 52% 3.2 mph W5.1 kmh W 7.6 mph12.2 kmh 27.32 in925.2 mb 0.00 in0.0 mm 0.00 in/hr0.0 mm/hr 0.00 in0.0 mm
02:00 PM 74.0°F23.3°C 53.8°F12.1°C 46% 3.5 mph W5.6 kmh W 7.4 mph11.9 kmh 27.29 in924.1 mb 0.00 in0.0 mm 0.00 in/hr0.0 mm/hr 0.00 in0.0 mm
02:05 PM 73.5°F23.1°C 51.2°F10.7°C 49% 0.8 mph S1.3 kmh S 4.9 mph7.9 kmh 27.29 in924.1 mb 0.00 in0.0 mm 0.00 in/hr0.0 mm/hr 0.00 in0.0 mm
02:10 PM 72.9°F22.7°C 54.3°F12.4°C 53% 2.1 mph SW3.4 kmh SW 4.7 mph7.6 kmh 27.29 in924.1 mb 0.00 in0.0 mm 0.00 in/hr0.0 mm/hr 0.00 in0.0 mm
02:15 PM 73.2°F22.9°C 55.0°F12.8°C 53% 1.2 mph NW1.9 kmh NW 5.4 mph8.7 kmh 27.32 in925.2 mb 0.00 in0.0 mm 0.00 in/hr0.0 mm/hr 0.00 in0.0 mm
02:20 PM 73.6°F23.1°C 55.0°F12.8°C 52% 1.8 mph NNE2.9 kmh NNE 5.6 mph9.0 kmh 27.32 in925.2 mb 0.00 in0.0 mm 0.00 in/hr0.0 mm/hr 0.00 in0.0 mm
02:25 PM 74.0°F23.3°C 54.6°F12.6°C 49% 4.3 mph SW6.9 kmh SW 6.5 mph10.5 kmh 27.32 in925.2 mb 0.00 in0.0 mm 0.00 in/hr0.0 mm/hr 0.00 in0.0 mm
02:30 PM 73.9°F23.3°C 51.1°F10.6°C 43% 1.1 mph SSE1.8 kmh SSE 6.5 mph10.5 kmh 27.29 in924.1 mb 0.00 in0.0 mm 0.00 in/hr0.0 mm/hr 0.00 in0.0 mm
02:35 PM 73.6°F23.1°C 52.0°F11.1°C 49% 0.4 mph S0.6 kmh S 3.4 mph5.5 kmh 27.29 in924.1 mb 0.00 in0.0 mm 0.00 in/hr0.0 mm/hr 0.00 in0.0 mm
02:40 PM 73.6°F23.1°C 54.3°F12.4°C 51% 3.9 mph WNW6.3 kmh WNW 6.5 mph10.5 kmh 27.29 in924.1 mb 0.00 in0.0 mm 0.00 in/hr0.0 mm/hr 0.00 in0.0 mm
02:45 PM 73.8°F23.2°C 54.4°F12.4°C 50% 4.3 mph SSW6.9 kmh SSW 7.6 mph12.2 kmh 27.29 in924.1 mb 0.00 in0.0 mm 0.00 in/hr0.0 mm/hr 0.00 in0.0 mm
02:50 PM 74.1°F23.4°C 54.3°F12.4°C 50% 2.3 mph S3.7 kmh S 7.6 mph12.2 kmh 27.29 in924.1 mb 0.00 in0.0 mm 0.00 in/hr0.0 mm/hr 0.00 in0.0 mm
02:55 PM 74.2°F23.4°C 54.2°F12.3°C 49% 0.5 mph N0.8 kmh N 4.7 mph7.6 kmh 27.29 in924.1 mb 0.00 in0.0 mm 0.00 in/hr0.0 mm/hr 0.00 in0.0 mm
03:00 PM 74.3°F23.5°C 53.9°F12.2°C 49% 1.7 mph NNW2.7 kmh NNW 3.4 mph5.5 kmh 27.26 in923.1 mb 0.00 in0.0 mm 0.00 in/hr0.0 mm/hr 0.00 in0.0 mm
03:05 PM 74.3°F23.5°C 53.9°F12.2°C 49% 1.9 mph N3.1 kmh N 3.6 mph5.8 kmh 27.26 in923.1 mb 0.00 in0.0 mm 0.00 in/hr0.0 mm/hr 0.00 in0.0 mm
03:10 PM 74.3°F23.5°C 53.9°F12.2°C 49% 1.8 mph N2.9 kmh N 3.6 mph5.8 kmh 27.26 in923.1 mb 0.00 in0.0 mm 0.00 in/hr0.0 mm/hr 0.00 in0.0 mm
03:15 PM 74.3°F23.5°C 53.9°F12.2°C 49% Calm Calm 3.6 mph5.8 kmh 27.26 in923.1 mb 0.00 in0.0 mm 0.00 in/hr0.0 mm/hr 0.00 in0.0 mm
03:20 PM 74.3°F23.5°C 53.9°F12.2°C 49% 1.0 mph NNW1.6 kmh NNW 3.4 mph5.5 kmh 27.26 in923.1 mb 0.00 in0.0 mm 0.00 in/hr0.0 mm/hr 0.00 in0.0 mm
03:25 PM 74.3°F23.5°C 53.9°F12.2°C 49% 2.4 mph NE3.9 kmh NE 4.3 mph6.9 kmh 27.26 in923.1 mb 0.00 in0.0 mm 0.00 in/hr0.0 mm/hr 0.00 in0.0 mm
03:30 PM 74.3°F23.5°C 53.9°F12.2°C 49% 2.8 mph N4.5 kmh N 4.3 mph6.9 kmh 27.26 in923.1 mb 0.00 in0.0 mm 0.00 in/hr0.0 mm/hr 0.00 in0.0 mm
03:35 PM 74.1°F23.4°C 53.8°F12.1°C 49% 1.3 mph E2.1 kmh E 4.3 mph6.9 kmh 27.26 in923.1 mb 0.00 in0.0 mm 0.00 in/hr0.0 mm/hr 0.00 in0.0 mm
03:40 PM 74.1°F23.4°C 53.8°F12.1°C 49% 2.8 mph SW4.5 kmh SW 7.6 mph12.2 kmh 27.26 in923.1 mb 0.00 in0.0 mm 0.00 in/hr0.0 mm/hr 0.00 in0.0 mm
03:45 PM 74.0°F23.3°C 54.0°F12.2°C 50% 1.5 mph SE2.4 kmh SE 7.6 mph12.2 kmh 27.29 in924.1 mb 0.00 in0.0 mm 0.00 in/hr0.0 mm/hr 0.00 in0.0 mm
03:50 PM 73.9°F23.3°C 54.1°F12.3°C 50% 2.0 mph NNW3.2 kmh NNW 6.3 mph10.1 kmh 27.29 in924.1 mb 0.00 in0.0 mm 0.00 in/hr0.0 mm/hr 0.00 in0.0 mm
03:55 PM 73.8°F23.2°C 54.0°F12.2°C 50% 0.9 mph S1.4 kmh S 6.3 mph10.1 kmh 27.29 in924.1 mb 0.00 in0.0 mm 0.00 in/hr0.0 mm/hr 0.00 in0.0 mm
04:00 PM 73.6°F23.1°C 53.8°F12.1°C 50% 1.1 mph S1.8 kmh S 3.6 mph5.8 kmh 27.26 in923.1 mb 0.00 in0.0 mm 0.00 in/hr0.0 mm/hr 0.00 in0.0 mm
04:05 PM 73.5°F23.1°C 54.1°F12.3°C 51% 1.5 mph S2.4 kmh S 3.6 mph5.8 kmh 27.26 in923.1 mb 0.00 in0.0 mm 0.00 in/hr0.0 mm/hr 0.00 in0.0 mm
04:10 PM 73.4°F23.0°C 54.2°F12.3°C 51% 3.1 mph SSW5.0 kmh SSW 5.6 mph9.0 kmh 27.26 in923.1 mb 0.00 in0.0 mm 0.00 in/hr0.0 mm/hr 0.00 in0.0 mm
04:15 PM 73.4°F23.0°C 54.2°F12.3°C 52% 1.0 mph SW1.6 kmh SW 5.6 mph9.0 kmh 27.26 in923.1 mb 0.00 in0.0 mm 0.00 in/hr0.0 mm/hr 0.00 in0.0 mm
04:20 PM 73.2°F22.9°C 54.6°F12.6°C 52% 2.0 mph SW3.2 kmh SW 4.3 mph6.9 kmh 27.26 in923.1 mb 0.00 in0.0 mm 0.00 in/hr0.0 mm/hr 0.00 in0.0 mm
04:25 PM 73.2°F22.9°C 54.5°F12.5°C 52% 1.9 mph SW3.1 kmh SW 4.3 mph6.9 kmh 27.26 in923.1 mb 0.00 in0.0 mm 0.00 in/hr0.0 mm/hr 0.00 in0.0 mm
04:30 PM 73.0°F22.8°C 54.4°F12.4°C 52% 1.2 mph N1.9 kmh N 3.6 mph5.8 kmh 27.26 in923.1 mb 0.00 in0.0 mm 0.00 in/hr0.0 mm/hr 0.00 in0.0 mm
04:35 PM 73.0°F22.8°C 54.4°F12.4°C 52% Calm Calm 3.6 mph5.8 kmh 27.26 in923.1 mb 0.00 in0.0 mm 0.00 in/hr0.0 mm/hr 0.00 in0.0 mm
04:40 PM 73.0°F22.8°C 54.7°F12.6°C 53% 0.8 mph WNW1.3 kmh WNW 2.5 mph4.0 kmh 27.26 in923.1 mb 0.00 in0.0 mm 0.00 in/hr0.0 mm/hr 0.00 in0.0 mm
04:45 PM 72.9°F22.7°C 54.8°F12.7°C 53% 2.6 mph NNW4.2 kmh NNW 5.4 mph8.7 kmh 27.26 in923.1 mb 0.00 in0.0 mm 0.00 in/hr0.0 mm/hr 0.00 in0.0 mm
04:50 PM 72.9°F22.7°C 54.8°F12.7°C 53% 2.1 mph ENE3.4 kmh ENE 5.4 mph8.7 kmh 27.26 in923.1 mb 0.00 in0.0 mm 0.00 in/hr0.0 mm/hr 0.00 in0.0 mm
04:55 PM 72.9°F22.7°C 54.7°F12.6°C 52% 2.5 mph NNW4.0 kmh NNW 6.5 mph10.5 kmh 27.26 in923.1 mb 0.00 in0.0 mm 0.00 in/hr0.0 mm/hr 0.00 in0.0 mm
05:00 PM 72.7°F22.6°C 54.1°F12.3°C 52% 1.5 mph N2.4 kmh N 6.5 mph10.5 kmh 27.29 in924.1 mb 0.00 in0.0 mm 0.00 in/hr0.0 mm/hr 0.00 in0.0 mm
05:05 PM 72.7°F22.6°C 54.1°F12.3°C 52% 3.1 mph NW5.0 kmh NW 5.6 mph9.0 kmh 27.29 in924.1 mb 0.00 in0.0 mm 0.00 in/hr0.0 mm/hr 0.00 in0.0 mm
05:10 PM 72.6°F22.6°C 54.0°F12.2°C 52% 2.9 mph NNW4.7 kmh NNW 7.4 mph11.9 kmh 27.29 in924.1 mb 0.00 in0.0 mm 0.00 in/hr0.0 mm/hr 0.00 in0.0 mm
05:15 PM 72.5°F22.5°C 53.9°F12.2°C 52% 1.3 mph S2.1 kmh S 7.4 mph11.9 kmh 27.26 in923.1 mb 0.00 in0.0 mm 0.00 in/hr0.0 mm/hr 0.00 in0.0 mm
05:20 PM 72.4°F22.4°C 53.8°F12.1°C 52% 1.8 mph WNW2.9 kmh WNW 3.8 mph6.1 kmh 27.26 in923.1 mb 0.00 in0.0 mm 0.00 in/hr0.0 mm/hr 0.00 in0.0 mm
05:25 PM 72.3°F22.4°C 53.7°F12.1°C 52% 1.8 mph SSW2.9 kmh SSW 4.0 mph6.4 kmh 27.26 in923.1 mb 0.00 in0.0 mm 0.00 in/hr0.0 mm/hr 0.00 in0.0 mm
05:30 PM 72.2°F22.3°C 53.6°F12.0°C 52% 1.7 mph SSE2.7 kmh SSE 5.6 mph9.0 kmh 27.26 in923.1 mb 0.00 in0.0 mm 0.00 in/hr0.0 mm/hr 0.00 in0.0 mm
05:35 PM 72.1°F22.3°C 53.5°F11.9°C 52% 2.2 mph E3.5 kmh E 5.6 mph9.0 kmh 27.26 in923.1 mb 0.00 in0.0 mm 0.00 in/hr0.0 mm/hr 0.00 in0.0 mm
05:40 PM 72.0°F22.2°C 53.4°F11.9°C 52% 0.7 mph SW1.1 kmh SW 4.3 mph6.9 kmh 27.26 in923.1 mb 0.00 in0.0 mm 0.00 in/hr0.0 mm/hr 0.00 in0.0 mm
05:45 PM 71.9°F22.2°C 53.3°F11.8°C 52% 2.8 mph WSW4.5 kmh WSW 6.0 mph9.7 kmh 27.26 in923.1 mb 0.00 in0.0 mm 0.00 in/hr0.0 mm/hr 0.00 in0.0 mm
05:50 PM 71.8°F22.1°C 53.3°F11.8°C 52% 3.5 mph SSW5.6 kmh SSW 8.1 mph13.0 kmh 27.26 in923.1 mb 0.00 in0.0 mm 0.00 in/hr0.0 mm/hr 0.00 in0.0 mm
05:55 PM 71.7°F22.1°C 53.4°F11.9°C 53% 2.2 mph NW3.5 kmh NW 8.1 mph13.0 kmh 27.26 in923.1 mb 0.00 in0.0 mm 0.00 in/hr0.0 mm/hr 0.00 in0.0 mm
06:00 PM 71.6°F22.0°C 53.6°F12.0°C 53% 3.8 mph WSW6.1 kmh WSW 5.8 mph9.3 kmh 27.26 in923.1 mb 0.00 in0.0 mm 0.00 in/hr0.0 mm/hr 0.00 in0.0 mm
06:05 PM 71.5°F21.9°C 53.5°F11.9°C 53% 3.4 mph NW5.5 kmh NW 5.8 mph9.3 kmh 27.26 in923.1 mb 0.00 in0.0 mm 0.00 in/hr0.0 mm/hr 0.00 in0.0 mm
06:10 PM 71.4°F21.9°C 53.4°F11.9°C 53% 2.6 mph E4.2 kmh E 4.7 mph7.6 kmh 27.26 in923.1 mb 0.00 in0.0 mm 0.00 in/hr0.0 mm/hr 0.00 in0.0 mm
06:15 PM 71.4°F21.9°C 53.4°F11.9°C 53% 2.4 mph NE3.9 kmh NE 5.6 mph9.0 kmh 27.26 in923.1 mb 0.00 in0.0 mm 0.00 in/hr0.0 mm/hr 0.00 in0.0 mm
06:20 PM 71.3°F21.8°C 53.2°F11.8°C 52% 1.7 mph SSE2.7 kmh SSE 5.6 mph9.0 kmh 27.26 in923.1 mb 0.00 in0.0 mm 0.00 in/hr0.0 mm/hr 0.00 in0.0 mm
06:25 PM 71.2°F21.8°C 52.7°F11.5°C 52% 2.8 mph NE4.5 kmh NE 4.5 mph7.2 kmh 27.26 in923.1 mb 0.00 in0.0 mm 0.00 in/hr0.0 mm/hr 0.00 in0.0 mm
06:30 PM 71.1°F21.7°C 52.6°F11.4°C 52% 0.6 mph E1.0 kmh E 3.8 mph6.1 kmh 27.29 in924.1 mb 0.00 in0.0 mm 0.00 in/hr0.0 mm/hr 0.00 in0.0 mm
06:35 PM 71.1°F21.7°C 52.6°F11.4°C 52% 0.1 mph ESE0.2 kmh ESE 3.4 mph5.5 kmh 27.29 in924.1 mb 0.00 in0.0 mm 0.00 in/hr0.0 mm/hr 0.00 in0.0 mm
06:40 PM 70.9°F21.6°C 52.4°F11.3°C 52% Calm Calm 3.4 mph5.5 kmh 27.29 in924.1 mb 0.00 in0.0 mm 0.00 in/hr0.0 mm/hr 0.00 in0.0 mm
06:45 PM 70.8°F21.6°C 52.3°F11.3°C 52% 2.7 mph SW4.3 kmh SW 5.4 mph8.7 kmh 27.29 in924.1 mb 0.00 in0.0 mm 0.00 in/hr0.0 mm/hr 0.00 in0.0 mm
06:50 PM 70.7°F21.5°C 52.2°F11.2°C 52% 1.6 mph WSW2.6 kmh WSW 5.4 mph8.7 kmh 27.29 in924.1 mb 0.00 in0.0 mm 0.00 in/hr0.0 mm/hr 0.00 in0.0 mm
06:55 PM 70.5°F21.4°C 52.1°F11.2°C 52% 3.4 mph W5.5 kmh W 6.0 mph9.7 kmh 27.29 in924.1 mb 0.00 in0.0 mm 0.00 in/hr0.0 mm/hr 0.00 in0.0 mm
07:00 PM 70.4°F21.3°C 51.9°F11.1°C 52% 2.7 mph WSW4.3 kmh WSW 6.0 mph9.7 kmh 27.32 in925.2 mb 0.00 in0.0 mm 0.00 in/hr0.0 mm/hr 0.00 in0.0 mm
07:05 PM 70.2°F21.2°C 51.8°F11.0°C 52% 2.8 mph SW4.5 kmh SW 4.7 mph7.6 kmh 27.32 in925.2 mb 0.00 in0.0 mm 0.00 in/hr0.0 mm/hr 0.00 in0.0 mm
07:10 PM 70.1°F21.2°C 51.7°F10.9°C 52% 1.7 mph NNE2.7 kmh NNE 4.3 mph6.9 kmh 27.32 in925.2 mb 0.00 in0.0 mm 0.00 in/hr0.0 mm/hr 0.00 in0.0 mm
07:15 PM 70.0°F21.1°C 51.6°F10.9°C 52% 1.2 mph N1.9 kmh N 4.0 mph6.4 kmh 27.32 in925.2 mb 0.00 in0.0 mm 0.00 in/hr0.0 mm/hr 0.00 in0.0 mm
07:20 PM 69.8°F21.0°C 51.4°F10.8°C 52% 1.5 mph E2.4 kmh E 4.0 mph6.4 kmh 27.32 in925.2 mb 0.00 in0.0 mm 0.00 in/hr0.0 mm/hr 0.00 in0.0 mm
07:25 PM 69.7°F20.9°C 51.3°F10.7°C 52% 1.1 mph S1.8 kmh S 4.0 mph6.4 kmh 27.32 in925.2 mb 0.00 in0.0 mm 0.00 in/hr0.0 mm/hr 0.00 in0.0 mm
07:30 PM 69.6°F20.9°C 51.2°F10.7°C 52% 1.3 mph WSW2.1 kmh WSW 2.9 mph4.7 kmh 27.34 in925.8 mb 0.00 in0.0 mm 0.00 in/hr0.0 mm/hr 0.00 in0.0 mm
07:35 PM 69.4°F20.8°C 51.1°F10.6°C 52% 2.5 mph SW4.0 kmh SW 4.7 mph7.6 kmh 27.34 in925.8 mb 0.00 in0.0 mm 0.00 in/hr0.0 mm/hr 0.00 in0.0 mm
07:40 PM 69.3°F20.7°C 50.9°F10.5°C 52% 1.2 mph NE1.9 kmh NE 4.7 mph7.6 kmh 27.34 in925.8 mb 0.00 in0.0 mm 0.00 in/hr0.0 mm/hr 0.00 in0.0 mm
07:45 PM 69.2°F20.7°C 50.9°F10.5°C 52% Calm Calm 2.7 mph4.3 kmh 27.32 in925.2 mb 0.00 in0.0 mm 0.00 in/hr0.0 mm/hr 0.00 in0.0 mm
07:50 PM 69.1°F20.6°C 50.7°F10.4°C 52% 1.2 mph N1.9 kmh N 2.5 mph4.0 kmh 27.32 in925.2 mb 0.00 in0.0 mm 0.00 in/hr0.0 mm/hr 0.00 in0.0 mm
07:55 PM 68.9°F20.5°C 50.6°F10.3°C 52% Calm Calm 2.5 mph4.0 kmh 27.32 in925.2 mb 0.00 in0.0 mm 0.00 in/hr0.0 mm/hr 0.00 in0.0 mm
08:00 PM 68.9°F20.5°C 50.7°F10.4°C 53% Calm Calm 1.3 mph2.1 kmh 27.32 in925.2 mb 0.00 in0.0 mm 0.00 in/hr0.0 mm/hr 0.00 in0.0 mm
08:05 PM 68.7°F20.4°C 50.9°F10.5°C 53% 0.5 mph SSW0.8 kmh SSW 2.2 mph3.5 kmh 27.32 in925.2 mb 0.00 in0.0 mm 0.00 in/hr0.0 mm/hr 0.00 in0.0 mm
08:10 PM 68.7°F20.4°C 50.9°F10.5°C 53% Calm Calm 2.2 mph3.5 kmh 27.32 in925.2 mb 0.00 in0.0 mm 0.00 in/hr0.0 mm/hr 0.00 in0.0 mm
08:15 PM 68.5°F20.3°C 50.8°F10.4°C 53% 0.7 mph SW1.1 kmh SW 2.2 mph3.5 kmh 27.32 in925.2 mb 0.00 in0.0 mm 0.00 in/hr0.0 mm/hr 0.00 in0.0 mm
08:20 PM 68.5°F20.3°C 50.7°F10.4°C 53% Calm Calm 2.2 mph3.5 kmh 27.32 in925.2 mb 0.00 in0.0 mm 0.00 in/hr0.0 mm/hr 0.00 in0.0 mm
08:25 PM 68.4°F20.2°C 50.6°F10.3°C 53% Calm Calm -- 27.32 in925.2 mb 0.00 in0.0 mm 0.00 in/hr0.0 mm/hr 0.00 in0.0 mm
08:30 PM 68.4°F20.2°C 50.6°F10.3°C 53% 0.4 mph S0.6 kmh S 1.3 mph2.1 kmh 27.34 in925.8 mb 0.00 in0.0 mm 0.00 in/hr0.0 mm/hr 0.00 in0.0 mm
08:35 PM 68.4°F20.2°C 50.6°F10.3°C 53% Calm Calm 2.0 mph3.2 kmh 27.34 in925.8 mb 0.00 in0.0 mm 0.00 in/hr0.0 mm/hr 0.00 in0.0 mm
08:40 PM 68.2°F20.1°C 50.4°F10.2°C 53% 0.7 mph SSE1.1 kmh SSE 2.0 mph3.2 kmh 27.34 in925.8 mb 0.00 in0.0 mm 0.00 in/hr0.0 mm/hr 0.00 in0.0 mm
08:45 PM 68.2°F20.1°C 50.4°F10.2°C 53% 1.8 mph ESE2.9 kmh ESE 2.7 mph4.3 kmh 27.32 in925.2 mb 0.00 in0.0 mm 0.00 in/hr0.0 mm/hr 0.00 in0.0 mm
08:50 PM 68.1°F20.1°C 50.6°F10.3°C 54% 0.5 mph SE0.8 kmh SE 2.7 mph4.3 kmh 27.32 in925.2 mb 0.00 in0.0 mm 0.00 in/hr0.0 mm/hr 0.00 in0.0 mm
08:55 PM 68.0°F20.0°C 50.8°F10.4°C 54% Calm Calm 2.2 mph3.5 kmh 27.32 in925.2 mb 0.00 in0.0 mm 0.00 in/hr0.0 mm/hr 0.00 in0.0 mm
09:00 PM 67.9°F19.9°C 50.7°F10.4°C 54% 1.2 mph E1.9 kmh E 2.7 mph4.3 kmh 27.32 in925.2 mb 0.00 in0.0 mm 0.00 in/hr0.0 mm/hr 0.00 in0.0 mm
09:05 PM 67.8°F19.9°C 50.6°F10.3°C 54% 0.1 mph NNW0.2 kmh NNW 2.7 mph4.3 kmh 27.32 in925.2 mb 0.00 in0.0 mm 0.00 in/hr0.0 mm/hr 0.00 in0.0 mm
09:10 PM 67.7°F19.8°C 50.5°F10.3°C 54% 0.5 mph NE0.8 kmh NE 2.5 mph4.0 kmh 27.32 in925.2 mb 0.00 in0.0 mm 0.00 in/hr0.0 mm/hr 0.00 in0.0 mm
09:15 PM 67.6°F19.8°C 50.4°F10.2°C 54% Calm Calm 2.5 mph4.0 kmh 27.32 in925.2 mb 0.00 in0.0 mm 0.00 in/hr0.0 mm/hr 0.00 in0.0 mm
09:20 PM 67.5°F19.7°C 50.3°F10.2°C 54% 1.4 mph NE2.3 kmh NE 2.2 mph3.5 kmh 27.32 in925.2 mb 0.00 in0.0 mm 0.00 in/hr0.0 mm/hr 0.00 in0.0 mm
09:25 PM 67.5°F19.7°C 50.3°F10.2°C 54% Calm Calm 2.2 mph3.5 kmh 27.32 in925.2 mb 0.00 in0.0 mm 0.00 in/hr0.0 mm/hr 0.00 in0.0 mm
09:30 PM 67.3°F19.6°C 50.1°F10.1°C 54% Calm Calm -- 27.32 in925.2 mb 0.00 in0.0 mm 0.00 in/hr0.0 mm/hr 0.00 in0.0 mm
09:35 PM 67.2°F19.6°C 50.1°F10.1°C 54% Calm Calm -- 27.32 in925.2 mb 0.00 in0.0 mm 0.00 in/hr0.0 mm/hr 0.00 in0.0 mm
09:40 PM 67.1°F19.5°C 49.9°F9.9°C 54% Calm Calm -- 27.32 in925.2 mb 0.00 in0.0 mm 0.00 in/hr0.0 mm/hr 0.00 in0.0 mm
09:45 PM 67.0°F19.4°C 49.8°F9.9°C 54% Calm Calm -- 27.34 in925.8 mb 0.00 in0.0 mm 0.00 in/hr0.0 mm/hr 0.00 in0.0 mm
09:50 PM 66.9°F19.4°C 49.9°F9.9°C 54% 0.7 mph N1.1 kmh N 1.6 mph2.6 kmh 27.34 in925.8 mb 0.00 in0.0 mm 0.00 in/hr0.0 mm/hr 0.00 in0.0 mm
09:55 PM 66.7°F19.3°C 49.8°F9.9°C 55% 0.5 mph NE0.8 kmh NE 2.5 mph4.0 kmh 27.34 in925.8 mb 0.00 in0.0 mm 0.00 in/hr0.0 mm/hr 0.00 in0.0 mm
10:00 PM 66.7°F19.3°C 49.8°F9.9°C 54% 2.6 mph NE4.2 kmh NE 3.6 mph5.8 kmh 27.34 in925.8 mb 0.00 in0.0 mm 0.00 in/hr0.0 mm/hr 0.00 in0.0 mm
10:09 PM 66.5°F19.2°C 49.3°F9.6°C 54% 1.5 mph NNW2.4 kmh NNW 3.6 mph5.8 kmh 27.34 in925.8 mb 0.00 in0.0 mm 0.00 in/hr0.0 mm/hr 0.00 in0.0 mm
10:10 PM 66.4°F19.1°C 49.3°F9.6°C 54% 1.4 mph ENE2.3 kmh ENE 3.6 mph5.8 kmh 27.34 in925.8 mb 0.00 in0.0 mm 0.00 in/hr0.0 mm/hr 0.00 in0.0 mm
10:15 PM 66.4°F19.1°C 49.3°F9.6°C 54% Calm Calm 2.0 mph3.2 kmh 27.29 in924.1 mb 0.00 in0.0 mm 0.00 in/hr0.0 mm/hr 0.00 in0.0 mm
10:20 PM 66.4°F19.1°C 49.3°F9.6°C 54% 0.5 mph NNW0.8 kmh NNW 1.6 mph2.6 kmh 27.29 in924.1 mb 0.00 in0.0 mm 0.00 in/hr0.0 mm/hr 0.00 in0.0 mm
10:29 PM 66.2°F19.0°C 49.6°F9.8°C 55% 0.4 mph E0.6 kmh E 2.0 mph3.2 kmh -338605.1 mb 0.00 in0.0 mm 0.00 in/hr0.0 mm/hr 0.00 in0.0 mm
10:33 PM 66.2°F19.0°C 49.6°F9.8°C 55% 1.6 mph SE2.6 kmh SE 2.7 mph4.3 kmh 27.29 in924.1 mb 0.00 in0.0 mm 0.00 in/hr0.0 mm/hr 0.00 in0.0 mm
10:38 PM 66.2°F19.0°C 49.6°F9.8°C 55% Calm Calm 2.7 mph4.3 kmh 27.29 in924.1 mb 0.00 in0.0 mm 0.00 in/hr0.0 mm/hr 0.00 in0.0 mm
10:43 PM 66.2°F19.0°C 49.6°F9.8°C 55% 1.0 mph SW1.6 kmh SW 2.5 mph4.0 kmh 27.29 in924.1 mb 0.00 in0.0 mm 0.00 in/hr0.0 mm/hr 0.00 in0.0 mm
10:48 PM 66.2°F19.0°C 49.6°F9.8°C 55% 1.8 mph WNW2.9 kmh WNW 3.4 mph5.5 kmh 27.29 in924.1 mb 0.00 in0.0 mm 0.00 in/hr0.0 mm/hr 0.00 in0.0 mm
10:54 PM 66.1°F18.9°C 49.5°F9.7°C 55% 1.6 mph WNW2.6 kmh WNW 3.4 mph5.5 kmh 27.29 in924.1 mb 0.00 in0.0 mm 0.00 in/hr0.0 mm/hr 0.00 in0.0 mm
10:58 PM 66.0°F18.9°C 49.4°F9.7°C 55% 1.1 mph S1.8 kmh S 2.7 mph4.3 kmh 27.29 in924.1 mb 0.00 in0.0 mm 0.00 in/hr0.0 mm/hr 0.00 in0.0 mm
11:03 PM 66.0°F18.9°C 49.4°F9.7°C 55% 1.1 mph N1.8 kmh N 3.4 mph5.5 kmh 27.29 in924.1 mb 0.00 in0.0 mm 0.00 in/hr0.0 mm/hr 0.00 in0.0 mm
11:09 PM 66.0°F18.9°C 49.4°F9.7°C 55% - N16091.8 kmh N -- -338605.1 mb 0.00 in0.0 mm 0.00 in/hr0.0 mm/hr 0.00 in0.0 mm
11:14 PM 66.0°F18.9°C 49.4°F9.7°C 55% - N16091.8 kmh N -- -338605.1 mb 0.00 in0.0 mm 0.00 in/hr0.0 mm/hr 0.00 in0.0 mm
11:18 PM 65.8°F18.8°C 49.2°F9.6°C 55% Calm Calm 2.0 mph3.2 kmh 27.32 in925.2 mb 0.00 in0.0 mm 0.00 in/hr0.0 mm/hr 0.00 in0.0 mm
11:23 PM 65.8°F18.8°C 49.2°F9.6°C 55% Calm Calm 1.1 mph1.8 kmh 27.32 in925.2 mb 0.00 in0.0 mm 0.00 in/hr0.0 mm/hr 0.00 in0.0 mm
11:28 PM 65.8°F18.8°C 49.2°F9.6°C 55% 0.5 mph WSW0.8 kmh WSW 1.6 mph2.6 kmh 27.32 in925.2 mb 0.00 in0.0 mm 0.00 in/hr0.0 mm/hr 0.00 in0.0 mm
11:33 PM 65.7°F18.7°C 49.1°F9.5°C 55% 0.2 mph SW0.3 kmh SW 1.6 mph2.6 kmh 27.32 in925.2 mb 0.00 in0.0 mm 0.00 in/hr0.0 mm/hr 0.00 in0.0 mm
11:38 PM 65.7°F18.7°C 49.1°F9.5°C 55% Calm Calm 1.6 mph2.6 kmh 27.32 in925.2 mb 0.00 in0.0 mm 0.00 in/hr0.0 mm/hr 0.00 in0.0 mm
11:43 PM 65.7°F18.7°C 49.1°F9.5°C 55% Calm Calm 0.9 mph1.4 kmh 27.32 in925.2 mb 0.00 in0.0 mm 0.00 in/hr0.0 mm/hr 0.00 in0.0 mm
11:48 PM 65.7°F18.7°C 49.1°F9.5°C 55% 1.3 mph SSW2.1 kmh SSW 2.2 mph3.5 kmh 27.32 in925.2 mb 0.00 in0.0 mm 0.00 in/hr0.0 mm/hr 0.00 in0.0 mm
11:53 PM 65.7°F18.7°C 49.1°F9.5°C 55% 1.7 mph SSW2.7 kmh SSW 3.6 mph5.8 kmh 27.32 in925.2 mb 0.00 in0.0 mm 0.00 in/hr0.0 mm/hr 0.00 in0.0 mm
11:58 PM 65.7°F18.7°C 49.1°F9.5°C 55% 0.7 mph W1.1 kmh W 3.6 mph5.8 kmh 27.32 in925.2 mb 0.00 in0.0 mm 0.00 in/hr0.0 mm/hr 0.00 in0.0 mm